Time,TemperatureF,DewpointF,PressureIn,WindDirection,WindDirectionDegrees,WindSpeedMPH,WindSpeedGustMPH,Humidity,HourlyPrecipIn,Conditions,Clouds,dailyrainin,SoftwareType,DateUTC
2013-02-01 01:31:00,42.8,40.6,30.21,WSW,241,0.0,0.0,92,0.00,,,0.00,Wunderground v.1.15,2013-02-01 09:31:00,
2013-02-01 01:41:00,42.6,40.4,30.21,West,265,1.0,1.0,92,0.00,,,0.00,Wunderground v.1.15,2013-02-01 09:41:00,
2013-02-01 01:52:00,42.4,40.2,30.21,WNW,301,0.0,0.0,92,0.00,,,0.00,Wunderground v.1.15,2013-02-01 09:52:00,
2013-02-01 02:01:00,42.2,40.3,30.21,WNW,291,0.0,0.0,93,0.00,,,0.00,Wunderground v.1.15,2013-02-01 10:01:00,
2013-02-01 02:11:00,42.1,40.2,30.21,WNW,287,0.0,0.0,93,0.00,,,0.00,Wunderground v.1.15,2013-02-01 10:11:00,
2013-02-01 02:21:00,42.2,40.3,30.21,West,270,0.0,0.0,93,0.00,,,0.00,Wunderground v.1.15,2013-02-01 10:21:00,
2013-02-01 02:32:00,42.1,40.2,30.21,North,4,0.0,1.0,93,0.00,,,0.00,Wunderground v.1.15,2013-02-01 10:32:00,
2013-02-01 02:41:00,41.9,40.0,30.21,West,266,0.0,0.0,93,0.00,,,0.00,Wunderground v.1.15,2013-02-01 10:41:00,
2013-02-01 02:51:00,41.7,39.8,30.21,WNW,285,0.0,1.0,93,0.00,,,0.00,Wunderground v.1.15,2013-02-01 10:51:00,
2013-02-01 08:31:00,44.1,41.6,30.22,NW,319,1.0,1.0,91,0.00,,,0.01,Wunderground v.1.15,2013-02-01 16:31:00,
2013-02-01 08:41:00,45.4,43.2,30.22,WNW,282,0.0,3.0,92,0.00,,,0.01,Wunderground v.1.15,2013-02-01 16:41:00,
2013-02-01 08:51:00,47.6,44.2,30.22,WNW,288,1.0,1.0,88,0.00,,,0.01,Wunderground v.1.15,2013-02-01 16:51:00,
2013-02-01 09:01:00,50.1,46.1,30.22,WNW,293,0.0,1.0,86,0.00,,,0.01,Wunderground v.1.15,2013-02-01 17:01:00,
2013-02-01 09:11:00,52.4,47.1,30.22,WNW,295,0.0,0.0,82,0.00,,,0.01,Wunderground v.1.15,2013-02-01 17:11:00,
2013-02-01 09:21:00,54.7,48.0,30.22,WNW,283,0.0,0.0,78,0.00,,,0.01,Wunderground v.1.15,2013-02-01 17:21:00,
2013-02-01 09:31:00,57.5,48.2,30.22,WNW,288,0.0,2.0,71,0.00,,,0.01,Wunderground v.1.15,2013-02-01 17:31:00,
2013-02-01 09:41:00,59.9,47.7,30.23,WNW,288,0.0,3.0,64,0.00,,,0.01,Wunderground v.1.15,2013-02-01 17:41:00,
2013-02-01 09:51:00,61.5,47.5,30.23,NNE,24,1.0,1.0,60,0.00,,,0.01,Wunderground v.1.15,2013-02-01 17:51:00,
2013-02-01 10:01:00,59.7,45.3,30.23,NNE,29,1.0,1.0,59,0.00,,,0.01,Wunderground v.1.15,2013-02-01 18:01:00,
2013-02-01 10:11:00,58.4,44.6,30.23,North,354,2.0,4.0,60,0.00,,,0.01,Wunderground v.1.15,2013-02-01 18:11:00,
2013-02-01 10:22:00,58.3,44.9,30.23,NW,314,2.0,3.0,61,0.00,,,0.01,Wunderground v.1.15,2013-02-01 18:22:00,
2013-02-01 10:31:00,58.9,44.6,30.22,NE,40,2.0,2.0,59,0.00,,,0.01,Wunderground v.1.15,2013-02-01 18:31:00,
2013-02-01 10:41:00,58.9,44.6,30.22,East,84,2.0,5.0,59,0.00,,,0.01,Wunderground v.1.15,2013-02-01 18:41:00,
2013-02-01 10:51:00,59.3,44.5,30.22,NW,325,2.0,2.0,58,0.00,,,0.01,Wunderground v.1.15,2013-02-01 18:51:00,
2013-02-01 11:02:00,60.0,45.6,30.22,North,354,2.0,2.0,59,0.00,,,0.01,Wunderground v.1.15,2013-02-01 19:02:00,
2013-02-01 11:11:00,60.3,45.0,30.22,NE,48,2.0,2.0,57,0.00,,,0.01,Wunderground v.1.15,2013-02-01 19:11:00,